createdAt,value
2018-06-11T00:01:16.625Z,69.08
2018-06-11T00:04:22.529Z,68.84
2018-06-11T00:07:27.361Z,69.81
2018-06-11T00:10:34.037Z,68.20
2018-06-11T00:13:40.173Z,69.67
2018-06-11T00:16:45.884Z,68.94
2018-06-11T00:19:50.953Z,69.74
2018-06-11T00:22:57.093Z,69.68
2018-06-11T00:26:02.898Z,68.76
2018-06-11T00:29:08.775Z,69.89
2018-06-11T00:32:13.859Z,68.88
2018-06-11T00:35:18.969Z,68.90
2018-06-11T00:38:24.069Z,69.78
2018-06-11T00:41:30.229Z,69.44
2018-06-11T00:44:35.342Z,70.18
2018-06-11T00:47:40.849Z,70.00
2018-06-11T00:50:45.930Z,69.77
2018-06-11T00:53:52.089Z,70.04
2018-06-11T00:56:57.259Z,70.41
2018-06-11T01:00:02.336Z,70.08
2018-06-11T01:03:08.165Z,69.61
2018-06-11T01:06:13.000Z,70.64
2018-06-11T01:09:18.551Z,70.34
2018-06-11T01:12:23.403Z,70.40
2018-06-11T01:15:29.396Z,69.86
2018-06-11T01:18:34.920Z,70.41
2018-06-11T01:21:40.031Z,70.37
2018-06-11T01:24:45.881Z,70.43
2018-06-11T01:27:51.346Z,69.95
2018-06-11T01:30:56.452Z,70.38
2018-06-11T01:34:01.724Z,70.17
2018-06-11T01:37:07.337Z,69.49
2018-06-11T01:40:14.180Z,70.53
2018-06-11T01:43:19.001Z,70.42
2018-06-11T01:46:25.565Z,70.17
2018-06-11T01:49:31.286Z,70.06
2018-06-11T01:52:37.128Z,70.53
2018-06-11T01:55:42.274Z,70.63
2018-06-11T01:58:48.608Z,69.76
2018-06-11T02:01:55.581Z,70.30
2018-06-11T02:05:01.573Z,70.73
2018-06-11T02:08:08.543Z,69.83
2018-06-11T02:11:15.499Z,69.87
2018-06-11T02:14:21.677Z,70.54
2018-06-11T02:17:27.345Z,70.56
2018-06-11T02:20:34.517Z,70.01
2018-06-11T02:23:40.517Z,71.00
2018-06-11T02:26:45.642Z,69.56
2018-06-11T02:29:50.741Z,70.08
2018-06-11T02:32:57.081Z,70.44
2018-06-11T02:36:02.189Z,69.02
2018-06-11T02:39:08.513Z,70.13
2018-06-11T02:42:14.250Z,70.02
2018-06-11T02:45:20.375Z,70.06
2018-06-11T02:48:25.909Z,69.33
2018-06-11T02:51:30.981Z,69.69
2018-06-11T02:54:36.856Z,69.60
2018-06-11T02:57:41.674Z,69.30
2018-06-11T03:00:47.402Z,69.54
2018-06-11T03:03:53.505Z,69.27
2018-06-11T03:06:59.533Z,69.86
2018-06-11T03:10:04.893Z,69.72
2018-06-11T03:13:10.536Z,69.68
2018-06-11T03:16:16.671Z,68.77
2018-06-11T03:19:22.681Z,69.31
2018-06-11T03:22:29.716Z,68.73
2018-06-11T03:25:35.656Z,68.88
2018-06-11T03:28:41.701Z,69.35
2018-06-11T03:31:47.697Z,68.43
2018-06-11T03:34:52.800Z,69.00
2018-06-11T03:37:57.908Z,68.74
2018-06-11T03:41:02.978Z,69.35
2018-06-11T03:44:08.724Z,69.34
2018-06-11T03:47:14.732Z,70.42
2018-06-11T03:50:19.577Z,70.21
2018-06-11T03:53:24.669Z,70.18
2018-06-11T03:56:30.781Z,69.64
2018-06-11T03:59:36.780Z,69.53
2018-06-11T04:02:42.615Z,69.76
2018-06-11T04:05:49.417Z,69.48
2018-06-11T04:08:54.853Z,69.55
2018-06-11T04:12:01.051Z,69.42
2018-06-11T04:15:07.192Z,69.45
2018-06-11T04:18:13.313Z,68.92
2018-06-11T04:21:19.330Z,68.71
2018-06-11T04:24:24.909Z,69.53
2018-06-11T04:27:32.059Z,69.47
2018-06-11T04:30:38.033Z,69.16
2018-06-11T04:33:43.653Z,68.77
2018-06-11T04:36:48.741Z,69.33
2018-06-11T04:39:54.480Z,68.60
2018-06-11T04:43:00.101Z,68.70
2018-06-11T04:46:06.185Z,68.87
2018-06-11T04:52:24.295Z,69.57
2018-06-11T04:55:30.414Z,69.35
2018-06-11T04:58:36.510Z,68.94
2018-06-11T05:01:42.190Z,69.62
2018-06-11T05:04:48.322Z,68.41
2018-06-11T05:07:54.038Z,68.99
2018-06-11T05:10:59.146Z,68.88
2018-06-11T05:14:05.053Z,69.10
2018-06-11T05:17:10.137Z,68.74
2018-06-11T05:20:15.297Z,68.13
2018-06-11T05:23:20.626Z,69.47
2018-06-11T05:26:25.770Z,69.50
2018-06-11T05:29:30.862Z,69.23
2018-06-11T05:32:36.097Z,68.47
2018-06-11T05:35:41.232Z,68.64
2018-06-11T05:38:46.981Z,68.61
2018-06-11T05:41:53.292Z,68.15
2018-06-11T05:44:59.708Z,68.61
2018-06-11T05:48:05.489Z,68.13
2018-06-11T05:51:10.774Z,68.95
2018-06-11T05:54:16.825Z,68.52
2018-06-11T05:57:21.681Z,68.64
2018-06-11T06:00:28.180Z,67.55
2018-06-11T06:03:33.901Z,67.50
2018-06-11T06:06:39.278Z,68.20
2018-06-11T06:09:44.373Z,67.93
2018-06-11T06:12:49.477Z,67.98
2018-06-11T06:15:54.680Z,67.74
2018-06-11T06:18:59.518Z,67.56
2018-06-11T06:22:05.856Z,67.42
2018-06-11T06:25:11.150Z,67.82
2018-06-11T06:28:16.252Z,66.69
2018-06-11T06:31:21.339Z,67.31
2018-06-11T06:34:27.096Z,66.93
2018-06-11T06:37:32.385Z,66.96
2018-06-11T06:40:37.947Z,67.38
2018-06-11T06:43:43.993Z,67.37
2018-06-11T06:46:49.076Z,67.48
2018-06-11T06:49:54.300Z,67.20
2018-06-11T06:52:59.442Z,67.08
2018-06-11T06:56:04.542Z,66.13
2018-06-11T06:59:10.111Z,66.93
2018-06-11T07:02:15.730Z,67.13
2018-06-11T07:05:21.845Z,66.77
2018-06-11T07:08:26.949Z,66.30
2018-06-11T07:11:32.685Z,67.46
2018-06-11T07:14:38.733Z,67.10
2018-06-11T07:17:45.098Z,66.20
2018-06-11T07:20:51.162Z,67.09
2018-06-11T07:23:56.261Z,66.00
2018-06-11T07:27:01.744Z,66.27
2018-06-11T07:30:07.468Z,66.42
2018-06-11T07:33:12.560Z,66.42
2018-06-11T07:36:18.377Z,66.03
2018-06-11T07:39:23.865Z,65.96
2018-06-11T07:42:28.969Z,65.50
2018-06-11T07:45:34.481Z,65.98
2018-06-11T07:48:39.610Z,65.63
2018-06-11T07:51:44.791Z,66.21
2018-06-11T07:54:50.001Z,65.41
2018-06-11T07:57:55.108Z,65.62
2018-06-11T08:01:00.213Z,65.78
2018-06-11T08:04:06.466Z,66.05
2018-06-11T08:07:12.385Z,65.89
2018-06-11T08:10:17.493Z,65.57
2018-06-11T08:13:22.631Z,65.39
2018-06-11T08:16:28.795Z,64.80
2018-06-11T08:19:34.241Z,65.29
2018-06-11T08:22:39.981Z,65.52
2018-06-11T08:25:45.648Z,64.72
2018-06-11T08:28:51.262Z,65.48
2018-06-11T08:31:56.341Z,64.81
2018-06-11T08:35:02.726Z,65.14
2018-06-11T08:38:09.544Z,64.75
2018-06-11T08:41:15.665Z,65.36
2018-06-11T08:44:20.794Z,64.39
2018-06-11T08:47:26.718Z,64.95
2018-06-11T08:50:31.832Z,65.06
2018-06-11T08:53:36.947Z,64.54
2018-06-11T08:56:42.589Z,64.26
2018-06-11T08:59:48.786Z,64.26
2018-06-11T09:02:54.048Z,64.70
2018-06-11T09:05:59.163Z,64.02
2018-06-11T09:09:08.260Z,64.26
2018-06-11T09:12:14.267Z,63.85
2018-06-11T09:15:19.686Z,62.71
2018-06-11T09:18:25.870Z,62.69
2018-06-11T09:21:31.088Z,63.05
2018-06-11T09:24:36.181Z,62.32
2018-06-11T09:27:41.277Z,63.36
2018-06-11T09:30:46.375Z,62.29
2018-06-11T09:33:51.502Z,61.99
2018-06-11T09:36:56.613Z,61.67
2018-06-11T09:40:02.125Z,61.97
2018-06-11T09:43:08.109Z,62.51
2018-06-11T09:46:14.218Z,61.50
2018-06-11T09:49:20.254Z,61.45
2018-06-11T09:52:27.308Z,61.93
2018-06-11T09:55:33.233Z,61.70
2018-06-11T09:58:38.361Z,61.80
2018-06-11T10:01:43.771Z,61.59
2018-06-11T10:04:49.775Z,59.98
2018-06-11T10:07:55.616Z,60.14
2018-06-11T10:11:01.137Z,59.71
2018-06-11T10:14:06.257Z,59.47
2018-06-11T10:17:11.384Z,59.90
2018-06-11T10:20:17.088Z,60.32
2018-06-11T10:23:22.393Z,59.97
2018-06-11T10:26:28.514Z,59.28
2018-06-11T10:29:33.617Z,59.75
2018-06-11T10:32:39.137Z,59.66
2018-06-11T10:35:44.235Z,59.32
2018-06-11T10:38:50.397Z,59.55
2018-06-11T10:41:55.477Z,57.78
2018-06-11T10:45:01.100Z,58.82
2018-06-11T10:48:06.201Z,58.67
2018-06-11T10:51:11.321Z,58.93
2018-06-11T10:54:17.329Z,59.26
2018-06-11T10:57:22.377Z,58.92
2018-06-11T11:00:29.193Z,56.89
2018-06-11T11:03:35.218Z,57.37
2018-06-11T11:06:40.866Z,57.83
2018-06-11T11:09:47.689Z,57.17
2018-06-11T11:12:53.496Z,56.69
2018-06-11T11:15:59.151Z,57.23
2018-06-11T11:19:04.269Z,56.45
2018-06-11T11:22:10.366Z,56.53
2018-06-11T11:25:15.905Z,56.93
2018-06-11T11:28:21.953Z,56.29
2018-06-11T11:31:27.061Z,56.10
2018-06-11T11:34:32.175Z,57.14
2018-06-11T11:37:37.283Z,57.12
2018-06-11T11:40:42.397Z,56.54
2018-06-11T11:43:47.493Z,56.97
2018-06-11T11:46:52.693Z,55.92
2018-06-11T11:49:59.724Z,56.59
2018-06-11T11:53:05.697Z,56.27
2018-06-11T11:56:10.822Z,55.55
2018-06-11T11:59:15.931Z,56.20
2018-06-11T12:02:21.962Z,56.50
2018-06-11T12:05:27.049Z,55.79
2018-06-11T12:08:32.162Z,56.08
2018-06-11T12:11:37.278Z,55.77
2018-06-11T12:14:42.431Z,56.45
2018-06-11T12:17:47.526Z,56.33
2018-06-11T12:20:52.654Z,55.68
2018-06-11T12:23:58.005Z,55.06
2018-06-11T12:27:04.033Z,54.98
2018-06-11T12:30:09.190Z,54.84
2018-06-11T12:33:14.327Z,54.88
2018-06-11T12:36:19.393Z,55.30
2018-06-11T12:39:25.858Z,54.56
2018-06-11T12:42:31.981Z,55.70
2018-06-11T12:45:38.784Z,55.34
2018-06-11T12:48:45.026Z,54.21
2018-06-11T12:51:51.156Z,54.52
2018-06-11T12:54:57.765Z,54.50
2018-06-11T12:58:03.806Z,54.39
2018-06-11T13:01:09.789Z,53.92
2018-06-11T13:04:15.798Z,53.15
2018-06-11T13:07:22.880Z,52.36
2018-06-11T13:10:28.821Z,54.33
2018-06-11T13:13:33.909Z,53.10
2018-06-11T13:16:39.035Z,53.47
2018-06-11T13:19:44.121Z,54.00
2018-06-11T13:22:49.868Z,54.17
2018-06-11T13:25:56.876Z,54.47
2018-06-11T13:29:02.005Z,53.25
2018-06-11T13:32:07.598Z,53.83
2018-06-11T13:35:13.582Z,52.80
2018-06-11T13:38:18.686Z,53.66
2018-06-11T13:41:24.856Z,53.43
2018-06-11T13:44:30.922Z,53.24
2018-06-11T13:47:36.362Z,53.52
2018-06-11T13:50:41.493Z,54.08
2018-06-11T13:53:47.389Z,53.68
2018-06-11T13:56:52.935Z,53.11
2018-06-11T13:59:59.469Z,53.05
2018-06-11T14:03:04.582Z,52.19
2018-06-11T14:06:10.222Z,53.31
2018-06-11T14:09:15.353Z,53.04
2018-06-11T14:12:22.319Z,53.30
2018-06-11T14:15:28.028Z,52.45
2018-06-11T14:18:33.101Z,52.21
2018-06-11T14:21:38.222Z,52.67
2018-06-11T14:24:43.343Z,51.93
2018-06-11T14:27:48.461Z,52.42
2018-06-11T14:30:53.934Z,51.92
2018-06-11T14:33:59.014Z,51.92
2018-06-11T14:37:05.442Z,52.28
2018-06-11T14:40:11.270Z,51.32
2018-06-11T14:43:16.705Z,51.64
2018-06-11T14:46:22.243Z,52.27
2018-06-11T14:49:27.766Z,51.53
2018-06-11T14:52:32.925Z,52.19
2018-06-11T14:55:38.242Z,52.26
2018-06-11T14:58:43.355Z,52.49
2018-06-11T15:01:49.318Z,51.64
2018-06-11T15:04:54.772Z,51.44
2018-06-11T15:07:59.900Z,51.22
2018-06-11T15:11:04.997Z,51.06
2018-06-11T15:14:10.109Z,50.96
2018-06-11T15:17:15.737Z,51.97
2018-06-11T15:20:21.621Z,51.17
2018-06-11T15:23:26.789Z,51.75
2018-06-11T15:26:32.604Z,51.91
2018-06-11T15:29:37.747Z,51.11
2018-06-11T15:32:42.810Z,51.38
2018-06-11T15:35:47.933Z,52.02
2018-06-11T15:38:53.474Z,51.72
2018-06-11T15:41:58.565Z,49.57
2018-06-11T15:45:03.663Z,50.46
2018-06-11T15:48:08.833Z,50.63
2018-06-11T15:51:13.952Z,51.01
2018-06-11T15:54:19.081Z,50.38
2018-06-11T15:57:25.835Z,51.31
2018-06-11T16:00:31.621Z,50.08
2018-06-11T16:03:37.302Z,49.35
2018-06-11T16:06:42.713Z,50.60
2018-06-11T16:09:48.863Z,50.56
2018-06-11T16:12:54.585Z,49.38
2018-06-11T16:16:01.314Z,50.09
2018-06-11T16:19:07.658Z,49.71
2018-06-11T16:22:12.721Z,49.39
2018-06-11T16:25:18.229Z,49.69
2018-06-11T16:28:23.308Z,49.81
2018-06-11T16:31:28.397Z,49.34
2018-06-11T16:34:34.014Z,49.81
2018-06-11T16:37:39.143Z,49.30
2018-06-11T16:40:44.246Z,49.38
2018-06-11T16:43:49.320Z,48.61
2018-06-11T16:46:54.425Z,48.83
2018-06-11T16:50:00.385Z,48.99
2018-06-11T16:53:06.201Z,49.61
2018-06-11T16:56:11.359Z,49.46
2018-06-11T16:59:17.084Z,50.32
2018-06-11T17:02:24.353Z,49.90
2018-06-11T17:05:31.711Z,50.36
2018-06-11T17:08:37.333Z,50.18
2018-06-11T17:11:42.468Z,50.34
2018-06-11T17:14:47.584Z,49.71
2018-06-11T17:17:55.248Z,50.11
2018-06-11T17:21:04.655Z,49.99
2018-06-11T17:24:12.049Z,50.17
2018-06-11T17:27:17.888Z,50.44
2018-06-11T17:30:23.121Z,49.96
2018-06-11T17:33:30.291Z,50.69
2018-06-11T17:36:36.332Z,50.68
2018-06-11T17:39:42.394Z,49.97
2018-06-11T17:42:48.265Z,51.02
2018-06-11T17:45:53.436Z,50.64
2018-06-11T17:48:58.965Z,50.63
2018-06-11T17:52:04.093Z,50.78
2018-06-11T17:55:10.317Z,51.12
2018-06-11T17:58:15.455Z,51.07
2018-06-11T18:01:21.455Z,51.38
2018-06-11T18:04:27.432Z,51.92
2018-06-11T18:07:33.281Z,52.38
2018-06-11T18:10:38.411Z,51.85
2018-06-11T18:13:43.929Z,52.07
2018-06-11T18:16:50.021Z,52.89
2018-06-11T18:19:55.773Z,52.49
2018-06-11T18:23:00.900Z,53.33
2018-06-11T18:26:07.824Z,52.61
2018-06-11T18:29:13.490Z,53.41
2018-06-11T18:32:19.660Z,53.30
2018-06-11T18:35:24.785Z,53.19
2018-06-11T18:38:30.262Z,53.61
2018-06-11T18:41:36.670Z,53.53
2018-06-11T18:44:41.865Z,54.18
2018-06-11T18:47:49.780Z,54.23
2018-06-11T18:50:55.618Z,54.60
2018-06-11T18:54:01.831Z,54.56
2018-06-11T18:57:07.124Z,53.94
2018-06-11T19:00:13.113Z,54.10
2018-06-11T19:03:18.280Z,54.43
2018-06-11T19:06:23.465Z,54.89
2018-06-11T19:09:29.512Z,54.49
2018-06-11T19:12:36.817Z,54.43
2018-06-11T19:15:42.856Z,54.58
2018-06-11T19:18:48.862Z,55.25
2018-06-11T19:21:54.977Z,54.42
2018-06-11T19:25:01.019Z,55.15
2018-06-11T19:28:06.975Z,55.13
2018-06-11T19:31:12.118Z,55.22
2018-06-11T19:34:17.233Z,55.13
2018-06-11T19:37:23.299Z,55.12
2018-06-11T19:40:29.106Z,55.09
2018-06-11T19:43:35.214Z,55.23
2018-06-11T19:46:42.240Z,56.06
2018-06-11T19:49:48.494Z,55.43
2018-06-11T19:52:53.862Z,55.82
2018-06-11T19:55:59.029Z,55.82
2018-06-11T19:59:04.460Z,55.67
2018-06-11T20:02:09.605Z,56.02
2018-06-11T20:05:16.722Z,55.93
2018-06-11T20:08:22.827Z,56.70
2018-06-11T20:11:29.876Z,56.72
2018-06-11T20:14:35.869Z,57.15
2018-06-11T20:17:41.749Z,56.65
2018-06-11T20:20:47.992Z,57.32
2018-06-11T20:23:56.378Z,56.84
2018-06-11T20:27:02.281Z,56.91
2018-06-11T20:30:08.456Z,57.86
2018-06-11T20:33:14.397Z,58.10
2018-06-11T20:36:19.518Z,58.58
2018-06-11T20:39:25.628Z,58.83
2018-06-11T20:42:31.672Z,58.02
2018-06-11T20:45:37.014Z,58.32
2018-06-11T20:48:42.652Z,57.70
2018-06-11T20:51:47.771Z,57.85
2018-06-11T20:54:53.692Z,58.47
2018-06-11T20:57:59.922Z,59.23
2018-06-11T21:01:06.218Z,58.74
2018-06-11T21:04:11.829Z,59.34
2018-06-11T21:07:16.956Z,59.21
2018-06-11T21:10:22.053Z,59.32
2018-06-11T21:13:27.165Z,60.01
2018-06-11T21:16:32.278Z,59.38
2018-06-11T21:19:37.454Z,59.08
2018-06-11T21:22:42.665Z,59.36
2018-06-11T21:25:47.745Z,58.86
2018-06-11T21:28:52.865Z,59.18
2018-06-11T21:31:58.525Z,59.81
2018-06-11T21:35:06.064Z,58.76
2018-06-11T21:38:12.095Z,59.50
2018-06-11T21:41:18.162Z,59.86
2018-06-11T21:44:24.762Z,59.75
2018-06-11T21:47:29.844Z,59.66
2018-06-11T21:50:37.081Z,59.29
2018-06-11T21:53:42.795Z,59.58
2018-06-11T21:56:47.946Z,60.54
2018-06-11T21:59:54.777Z,59.42
2018-06-11T22:03:00.681Z,60.00
2018-06-11T22:06:07.640Z,59.34
2018-06-11T22:09:13.074Z,59.87
2018-06-11T22:12:18.569Z,59.22
2018-06-11T22:15:23.669Z,59.83
2018-06-11T22:18:29.325Z,59.32
2018-06-11T22:21:35.324Z,59.90
2018-06-11T22:24:40.494Z,59.38
2018-06-11T22:27:45.662Z,59.92
2018-06-11T22:30:51.108Z,59.54
2018-06-11T22:33:56.941Z,59.25
2018-06-11T22:37:03.028Z,59.13
2018-06-11T22:40:09.882Z,60.11
2018-06-11T22:43:15.705Z,59.65
2018-06-11T22:46:20.793Z,59.56
2018-06-11T22:49:25.909Z,59.69
2018-06-11T22:52:32.435Z,59.77
2018-06-11T22:55:38.567Z,59.26
2018-06-11T22:58:45.376Z,59.21
2018-06-11T23:01:51.409Z,59.43
2018-06-11T23:04:57.505Z,59.01
2018-06-11T23:08:02.625Z,59.88
2018-06-11T23:11:07.737Z,59.10
2018-06-11T23:14:13.210Z,58.72
2018-06-11T23:28:24.156Z,60.01
2018-06-11T23:31:29.889Z,59.17
2018-06-11T23:34:36.004Z,59.23
2018-06-11T23:37:41.887Z,59.94
2018-06-11T23:40:47.820Z,59.50
2018-06-11T23:43:52.966Z,59.81
2018-06-11T23:46:58.983Z,59.90
2018-06-11T23:50:04.979Z,59.57
2018-06-11T23:53:10.434Z,60.20
2018-06-11T23:56:16.545Z,59.68
2018-06-11T23:59:21.660Z,59.86
